Angler Guide Weather for Geraldton -
Geraldton, Ontario Current Weather Conditions
Enter your "Place, State", US Zip Code or ICAO:  
Forecast Information Radar Information
Geraldton, Ontario, Canada  Lat: 49.77N, Lon: 86.93W
ICAO Used: CYTJ
Current Conditions
Updated:
Sun & Moon Information:
Temp: N/A
Humidity: N/A
Wind Speed: N/A
Barometer: N/A
Dewpoint: N/A
Heat Index: N/A
Wind Chill: N/A
Civil Twilight: 7:58 AM EST
Moonrise: 4:41 AM EST Moon Phase:
Waning Crescent Moon
Waning Crescent Moon
Moonset: 3:14 PM EST
Sunrise: 8:36 AM EST
Sunset: 4:46 PM EST
Civil Twilight: 5:24 PM EST
Forecast for Geraldton, ON:
(Forecast based on TAF for )
0425 PM EST MON NOV 06 2006
  
AFTERNOONEVENINGOVERNIGHTMORNING
MISTOVERCASTOVERCASTOVERCAST
MistOvercastOvercastOvercast
TAF based forecast:
Dated: 0425 PM EST MON NOV 06 2006
Afternoon...Overcast with winds from the south west at 12 mph. Possible periods of mist.
Evening...Overcast with winds from the south west at 12 mph.
Overnight...Overcast with winds from the south west at 12 mph.
Morning...Overcast with winds from the south west at 12 mph.
Original Encoded TAF:
Dated: 0425 PM EST MON NOV 06 2006
2006/11/06 21:25
CYTJ 062125Z 062122 22010KT P6SM OVC080 TEMPO 2122 4SM BR=




Powered by Angler Guide.com
Copyright 2007, all rights reserved.